createdAt,value
2022-10-24T00:00:42.756Z,14.60
2022-10-24T00:05:35.102Z,14.40
2022-10-24T00:10:27.510Z,14.40
2022-10-24T00:15:19.972Z,14.30
2022-10-24T00:20:13.371Z,14.20
2022-10-24T00:25:06.719Z,14.10
2022-10-24T00:29:59.136Z,14.00
2022-10-24T00:34:51.603Z,14.00
2022-10-24T00:39:44.198Z,14.00
2022-10-24T00:44:42.085Z,14.00
2022-10-24T00:49:45.568Z,13.90
2022-10-24T00:54:40.045Z,14.00
2022-10-24T00:59:35.193Z,14.00
2022-10-24T01:04:27.621Z,13.90
2022-10-24T01:09:40.774Z,13.80
2022-10-24T01:14:33.052Z,13.80
2022-10-24T01:19:50.032Z,13.80
2022-10-24T01:25:13.415Z,13.80
2022-10-24T01:30:14.509Z,13.90
2022-10-24T01:35:26.163Z,14.00
2022-10-24T01:40:26.815Z,14.00
2022-10-24T01:45:26.424Z,14.10
2022-10-24T01:50:20.876Z,14.00
2022-10-24T01:55:13.645Z,14.10
2022-10-24T02:00:09.698Z,14.20
2022-10-24T02:05:15.587Z,14.30
2022-10-24T02:10:17.226Z,14.30
2022-10-24T02:15:19.941Z,14.20
2022-10-24T02:20:13.302Z,14.20
2022-10-24T02:25:11.652Z,14.20
2022-10-24T02:30:11.407Z,14.30
2022-10-24T02:35:05.538Z,14.30
2022-10-24T02:39:59.755Z,14.10
2022-10-24T02:44:53.227Z,13.80
2022-10-24T02:49:46.220Z,13.60
2022-10-24T02:54:38.741Z,13.50
2022-10-24T02:59:31.609Z,13.30
2022-10-24T03:04:24.268Z,13.20
2022-10-24T03:09:16.743Z,13.40
2022-10-24T03:14:09.316Z,13.50
2022-10-24T03:19:01.992Z,13.50
2022-10-24T03:23:54.585Z,13.50
2022-10-24T03:28:47.371Z,13.60
2022-10-24T03:33:40.099Z,13.70
2022-10-24T03:38:32.547Z,13.60
2022-10-24T03:43:24.910Z,13.70
2022-10-24T03:48:17.324Z,13.70
2022-10-24T03:53:10.480Z,13.90
2022-10-24T03:58:02.894Z,13.60
2022-10-24T04:02:56.974Z,13.40
2022-10-24T04:07:49.357Z,13.20
2022-10-24T04:12:41.788Z,13.10
2022-10-24T04:17:34.374Z,13.00
2022-10-24T04:22:26.690Z,13.00
2022-10-24T04:27:19.685Z,13.00
2022-10-24T04:32:12.200Z,13.00
2022-10-24T04:37:05.007Z,13.00
2022-10-24T04:41:57.758Z,13.10
2022-10-24T04:46:51.540Z,13.10
2022-10-24T04:51:44.125Z,13.10
2022-10-24T04:56:36.558Z,13.10
2022-10-24T05:01:29.163Z,13.00
2022-10-24T05:06:21.616Z,12.90
2022-10-24T05:11:16.254Z,12.80
2022-10-24T05:16:09.140Z,12.60
2022-10-24T05:21:02.407Z,12.50
2022-10-24T05:25:55.062Z,12.40
2022-10-24T05:30:47.393Z,12.50
2022-10-24T05:35:41.910Z,12.40
2022-10-24T05:40:34.372Z,12.40
2022-10-24T05:45:26.836Z,12.60
2022-10-24T05:50:19.521Z,12.80
2022-10-24T05:55:14.478Z,12.70
2022-10-24T06:00:13.823Z,12.70
2022-10-24T06:05:08.895Z,12.80
2022-10-24T06:10:02.782Z,12.70
2022-10-24T06:14:59.899Z,13.00
2022-10-24T06:19:52.359Z,13.30
2022-10-24T06:24:45.500Z,13.60
2022-10-24T06:29:38.320Z,14.00
2022-10-24T06:34:31.185Z,14.50
2022-10-24T06:39:24.020Z,14.90
2022-10-24T06:44:17.303Z,15.40
2022-10-24T06:49:10.315Z,15.40
2022-10-24T06:54:05.564Z,15.40
2022-10-24T06:58:58.148Z,15.60
2022-10-24T07:03:53.446Z,15.70
2022-10-24T07:08:47.669Z,15.90
2022-10-24T07:13:40.260Z,16.10
2022-10-24T07:18:32.880Z,16.40
2022-10-24T07:23:25.098Z,17.00
2022-10-24T07:28:18.446Z,18.40
2022-10-24T07:33:11.259Z,20.40
2022-10-24T07:38:04.875Z,19.80
2022-10-24T07:42:57.420Z,19.20
2022-10-24T07:47:49.791Z,18.80
2022-10-24T07:52:42.207Z,19.00
2022-10-24T07:57:34.807Z,20.00
2022-10-24T08:02:27.334Z,21.30
2022-10-24T08:07:19.890Z,21.30
2022-10-24T08:12:14.865Z,20.50
2022-10-24T08:17:07.937Z,19.60
2022-10-24T08:22:03.405Z,19.30
2022-10-24T08:27:00.054Z,19.10
2022-10-24T08:31:55.941Z,19.10
2022-10-24T08:36:51.436Z,19.10
2022-10-24T08:41:59.439Z,19.10
2022-10-24T08:47:04.325Z,19.20
2022-10-24T08:52:04.371Z,19.00
2022-10-24T08:57:00.099Z,18.80
2022-10-24T09:02:00.630Z,18.90
2022-10-24T09:06:57.390Z,19.10
2022-10-24T09:11:58.514Z,19.40
2022-10-24T09:16:56.802Z,19.70
2022-10-24T09:21:51.155Z,19.90
2022-10-24T09:26:45.989Z,20.00
2022-10-24T09:31:39.106Z,20.00
2022-10-24T09:36:31.767Z,20.20
2022-10-24T09:41:29.355Z,19.90
2022-10-24T09:46:31.799Z,19.70
2022-10-24T09:51:31.857Z,20.30
2022-10-24T09:56:41.297Z,21.30
2022-10-24T10:01:36.669Z,22.30
2022-10-24T10:06:33.304Z,23.30
2022-10-24T10:11:31.634Z,23.70
2022-10-24T10:16:34.557Z,23.30
2022-10-24T10:21:27.450Z,22.90
2022-10-24T10:26:42.636Z,22.40
2022-10-24T10:31:47.031Z,21.70
2022-10-24T10:36:50.969Z,21.30
2022-10-24T10:47:04.063Z,20.80
2022-10-24T11:04:57.560Z,20.40
2022-10-24T11:09:59.115Z,20.30
2022-10-24T11:14:53.163Z,20.20
2022-10-24T11:21:11.940Z,20.10
2022-10-24T11:26:26.607Z,20.00
2022-10-24T11:31:54.913Z,20.00
2022-10-24T11:36:55.975Z,19.80
2022-10-24T11:42:35.241Z,19.70
2022-10-24T11:47:54.011Z,19.70
2022-10-24T11:52:52.661Z,19.60
2022-10-24T11:57:52.889Z,19.40
2022-10-24T12:03:10.764Z,19.30
2022-10-24T12:08:18.741Z,19.10
2022-10-24T12:13:54.657Z,19.10
2022-10-24T12:18:53.492Z,19.20
2022-10-24T12:23:59.421Z,19.20
2022-10-24T12:29:04.324Z,19.30
2022-10-24T12:34:27.674Z,19.40
2022-10-24T12:40:19.298Z,19.40
2022-10-24T12:45:48.610Z,19.30
2022-10-24T12:50:47.512Z,19.30
2022-10-24T12:55:43.010Z,19.40
2022-10-24T13:00:39.871Z,19.40
2022-10-24T13:11:04.173Z,19.60
2022-10-24T13:16:26.229Z,19.50
2022-10-24T13:21:28.765Z,19.50
2022-10-24T13:26:43.364Z,19.50
2022-10-24T13:31:38.924Z,19.40
2022-10-24T13:36:37.391Z,19.40
2022-10-24T13:41:35.337Z,19.50
2022-10-24T13:46:54.870Z,19.50
2022-10-24T13:51:52.931Z,19.60
2022-10-24T13:56:47.530Z,19.60
2022-10-24T14:01:42.299Z,19.50
2022-10-24T14:06:35.082Z,19.40
2022-10-24T14:11:29.258Z,19.20
2022-10-24T14:16:31.251Z,19.30
2022-10-24T14:21:24.232Z,19.30
2022-10-24T14:26:22.285Z,19.20
2022-10-24T14:31:31.579Z,19.30
2022-10-24T14:36:29.864Z,19.10
2022-10-24T14:41:45.280Z,18.90
2022-10-24T14:46:40.758Z,18.70
2022-10-24T14:51:39.298Z,18.60
2022-10-24T14:56:35.057Z,18.50
2022-10-24T15:01:28.195Z,18.30
2022-10-24T15:06:29.834Z,18.10
2022-10-24T15:11:28.025Z,18.00
2022-10-24T15:16:32.626Z,18.00
2022-10-24T15:21:31.050Z,17.90
2022-10-24T15:26:37.357Z,17.90
2022-10-24T15:31:36.309Z,17.80
2022-10-24T15:36:36.513Z,17.60
2022-10-24T15:41:29.580Z,17.50
2022-10-24T15:46:23.577Z,17.30
2022-10-24T15:51:18.348Z,17.10
2022-10-24T15:56:12.999Z,17.10
2022-10-24T16:01:05.907Z,17.00
2022-10-24T16:05:59.797Z,17.00
2022-10-24T16:10:56.901Z,17.10
2022-10-24T16:15:50.915Z,17.20
2022-10-24T16:20:44.128Z,17.20
2022-10-24T16:25:39.633Z,17.20
2022-10-24T16:30:34.153Z,17.20
2022-10-24T16:35:32.748Z,17.10
2022-10-24T16:40:30.323Z,17.10
2022-10-24T16:45:25.081Z,16.90
2022-10-24T16:50:24.963Z,16.70
2022-10-24T16:55:17.935Z,16.50
2022-10-24T17:00:15.486Z,16.30
2022-10-24T17:05:08.051Z,16.00
2022-10-24T17:10:05.002Z,15.80
2022-10-24T17:15:02.960Z,15.60
2022-10-24T17:19:58.675Z,15.40
2022-10-24T17:24:55.148Z,15.30
2022-10-24T17:29:48.621Z,15.20
2022-10-24T17:34:57.035Z,15.20
2022-10-24T17:40:24.962Z,15.10
2022-10-24T17:45:24.776Z,15.10
2022-10-24T17:50:28.594Z,15.10
2022-10-24T17:55:45.226Z,15.20
2022-10-24T18:00:42.090Z,15.30
2022-10-24T18:05:38.935Z,15.30
2022-10-24T18:10:46.623Z,15.20
2022-10-24T18:15:41.303Z,15.10
2022-10-24T18:20:38.598Z,15.10
2022-10-24T18:25:39.617Z,15.10
2022-10-24T18:30:40.539Z,15.30
2022-10-24T18:35:36.723Z,15.40
2022-10-24T18:40:34.831Z,15.30
2022-10-24T18:45:43.764Z,15.10
2022-10-24T18:50:42.421Z,14.90
2022-10-24T18:55:41.710Z,14.70
2022-10-24T19:00:44.978Z,14.60
2022-10-24T19:05:53.683Z,14.80
2022-10-24T19:11:14.279Z,14.60
2022-10-24T19:16:28.823Z,14.50
2022-10-24T19:21:29.381Z,14.30
2022-10-24T19:26:25.797Z,14.00
2022-10-24T19:31:24.318Z,13.90
2022-10-24T19:36:20.302Z,13.80
2022-10-24T19:41:13.699Z,13.70
2022-10-24T19:46:19.677Z,13.60
2022-10-24T19:51:17.650Z,13.70
2022-10-24T19:56:15.950Z,13.70
2022-10-24T20:01:18.330Z,13.70
2022-10-24T20:06:14.657Z,13.70
2022-10-24T20:16:20.594Z,13.80
2022-10-24T20:21:19.957Z,13.80
2022-10-24T20:26:18.430Z,13.80
2022-10-24T20:31:50.053Z,13.90
2022-10-24T20:36:50.211Z,14.10
2022-10-24T20:41:54.006Z,14.10
2022-10-24T20:47:02.692Z,13.80
2022-10-24T20:52:08.153Z,13.70
2022-10-24T21:48:30.023Z,12.80
2022-10-24T21:53:24.783Z,12.80
2022-10-24T21:58:17.821Z,12.80
2022-10-24T22:03:17.368Z,12.80
2022-10-24T22:08:13.071Z,12.70
2022-10-24T22:13:10.797Z,12.60
2022-10-24T22:18:26.530Z,12.50
2022-10-24T22:23:19.867Z,12.50
2022-10-24T22:28:14.070Z,12.50
2022-10-24T22:33:41.788Z,12.50
2022-10-24T22:38:40.774Z,12.40
2022-10-24T22:43:59.720Z,12.30
2022-10-24T22:49:02.630Z,12.20
2022-10-24T22:53:55.677Z,12.10
2022-10-24T22:58:49.097Z,12.00
2022-10-24T23:04:28.362Z,11.90
2022-10-24T23:09:35.611Z,11.90
2022-10-24T23:19:54.007Z,11.90
2022-10-24T23:24:51.187Z,12.00
2022-10-24T23:29:48.363Z,12.00
2022-10-24T23:39:42.729Z,11.90
2022-10-24T23:44:35.807Z,11.80
2022-10-24T23:49:54.781Z,11.70
2022-10-24T23:54:47.794Z,11.60
2022-10-24T23:59:40.323Z,11.60
